createdAt,value
2022-08-22T00:02:47.030Z,94.18
2022-08-22T00:02:58.023Z,100.00
2022-08-22T00:04:24.812Z,100.00
2022-08-22T00:09:36.333Z,100.00
2022-08-22T00:14:47.519Z,100.00
2022-08-22T00:19:56.259Z,100.00
2022-08-22T00:25:24.880Z,100.00
2022-08-22T00:30:35.961Z,100.00
2022-08-22T00:35:45.140Z,100.00
2022-08-22T00:41:01.068Z,100.00
2022-08-22T00:46:54.508Z,100.00
2022-08-22T00:52:36.558Z,100.00
2022-08-22T00:57:55.775Z,100.00
2022-08-22T01:03:26.746Z,100.00
2022-08-22T01:08:47.858Z,100.00
2022-08-22T01:14:08.854Z,100.00
2022-08-22T01:19:45.691Z,100.00
2022-08-22T01:25:26.103Z,100.00
2022-08-22T01:31:15.336Z,100.00
2022-08-22T01:37:01.708Z,100.00
2022-08-22T01:42:43.762Z,100.00
2022-08-22T01:47:54.508Z,100.00
2022-08-22T01:53:09.787Z,100.00
2022-08-22T01:58:19.576Z,100.00
2022-08-22T02:03:29.282Z,100.00
2022-08-22T02:08:45.396Z,100.00
2022-08-22T02:13:59.434Z,100.00
2022-08-22T02:19:26.723Z,100.00
2022-08-22T02:24:49.123Z,100.00
2022-08-22T02:30:08.477Z,100.00
2022-08-22T02:35:23.458Z,100.00
2022-08-22T02:40:35.432Z,100.00
2022-08-22T02:45:42.860Z,100.00
2022-08-22T02:50:54.850Z,100.00
2022-08-22T02:56:06.254Z,100.00
2022-08-22T03:01:25.352Z,100.00
2022-08-22T03:06:37.826Z,100.00
2022-08-22T03:11:47.908Z,100.00
2022-08-22T03:17:03.291Z,100.00
2022-08-22T03:22:12.781Z,100.00
2022-08-22T03:27:27.813Z,100.00
2022-08-22T03:32:52.040Z,100.00
2022-08-22T03:38:09.055Z,100.00
2022-08-22T03:43:32.228Z,100.00
2022-08-22T03:48:57.024Z,100.00
2022-08-22T03:54:41.416Z,100.00
2022-08-22T04:00:04.359Z,100.00
2022-08-22T04:05:47.880Z,100.00
2022-08-22T04:11:21.541Z,100.00
2022-08-22T04:17:06.309Z,100.00
2022-08-22T04:22:23.980Z,100.00
2022-08-22T04:27:33.985Z,100.00
2022-08-22T04:32:45.911Z,100.00
2022-08-22T04:37:54.564Z,100.00
2022-08-22T04:43:03.631Z,100.00
2022-08-22T04:48:14.096Z,100.00
2022-08-22T04:53:29.988Z,100.00
2022-08-22T04:58:43.040Z,100.00
2022-08-22T05:03:57.777Z,100.00
2022-08-22T05:09:05.651Z,100.00
2022-08-22T05:14:19.326Z,100.00
2022-08-22T05:19:32.427Z,100.00
2022-08-22T05:24:40.165Z,100.00
2022-08-22T05:29:48.056Z,100.00
2022-08-22T05:34:59.125Z,100.00
2022-08-22T05:40:02.893Z,100.00
2022-08-22T05:45:12.234Z,100.00
2022-08-22T05:50:21.272Z,100.00
2022-08-22T05:55:29.406Z,100.00
2022-08-22T06:00:40.258Z,100.00
2022-08-22T06:05:52.684Z,100.00
2022-08-22T06:10:59.283Z,100.00
2022-08-22T06:16:11.740Z,100.00
2022-08-22T06:21:22.108Z,100.00
2022-08-22T06:26:29.255Z,100.00
2022-08-22T06:31:37.160Z,100.00
2022-08-22T06:36:45.961Z,100.00
2022-08-22T06:41:53.801Z,100.00
2022-08-22T06:47:01.010Z,100.00
2022-08-22T06:52:09.104Z,100.00
2022-08-22T06:57:27.091Z,100.00
2022-08-22T07:02:37.606Z,100.00
2022-08-22T07:07:42.610Z,100.00
2022-08-22T07:12:49.690Z,100.00
2022-08-22T07:18:00.533Z,100.00
2022-08-22T07:23:10.037Z,100.00
2022-08-22T07:28:31.762Z,100.00
2022-08-22T07:33:45.227Z,100.00
2022-08-22T07:39:04.216Z,100.00
2022-08-22T07:44:17.502Z,100.00
2022-08-22T07:49:25.762Z,100.00
2022-08-22T07:54:38.250Z,100.00
2022-08-22T07:59:54.835Z,100.00
2022-08-22T08:05:01.673Z,100.00
2022-08-22T08:10:13.359Z,100.00
2022-08-22T08:15:21.614Z,100.00
2022-08-22T08:20:28.514Z,100.00
2022-08-22T08:25:39.244Z,96.69
2022-08-22T08:30:46.960Z,88.28
2022-08-22T08:36:02.735Z,87.14
2022-08-22T08:41:50.628Z,86.90
2022-08-22T08:47:15.228Z,86.42
2022-08-22T08:52:44.702Z,87.38
2022-08-22T09:04:15.234Z,87.76
2022-08-22T09:09:34.712Z,86.76
2022-08-22T09:15:03.874Z,87.32
2022-08-22T09:20:50.392Z,87.04
2022-08-22T09:26:01.057Z,88.35
2022-08-22T09:31:47.668Z,88.71
2022-08-22T09:37:16.392Z,88.90
2022-08-22T09:40:15.241Z,87.81
2022-08-22T09:42:25.402Z,88.14
2022-08-22T09:47:35.619Z,87.08
2022-08-22T09:52:53.618Z,85.64
2022-08-22T09:58:04.792Z,86.13
2022-08-22T10:03:18.507Z,84.02
2022-08-22T10:08:34.743Z,84.59
2022-08-22T10:13:56.600Z,77.81
2022-08-22T10:19:16.793Z,79.63
2022-08-22T10:24:44.111Z,75.17
2022-08-22T10:30:01.892Z,70.91
2022-08-22T10:35:18.191Z,67.36
2022-08-22T10:40:27.872Z,64.41
2022-08-22T10:45:36.652Z,62.67
2022-08-22T10:50:46.696Z,63.22
2022-08-22T10:55:55.205Z,62.79
2022-08-22T11:01:41.570Z,63.07
2022-08-22T11:06:32.201Z,61.58
2022-08-22T11:11:43.465Z,59.16
2022-08-22T11:16:59.018Z,56.77
2022-08-22T11:22:22.524Z,56.70
2022-08-22T11:27:38.334Z,55.25
2022-08-22T11:33:05.472Z,54.68
2022-08-22T11:38:26.939Z,52.83
2022-08-22T11:43:48.716Z,49.98
2022-08-22T11:49:09.202Z,50.98
2022-08-22T11:54:21.300Z,52.24
2022-08-22T11:59:43.032Z,48.99
2022-08-22T12:04:53.151Z,50.35
2022-08-22T12:10:00.728Z,48.27
2022-08-22T12:15:12.099Z,48.09
2022-08-22T12:20:33.226Z,46.52
2022-08-22T12:25:55.018Z,48.47
2022-08-22T12:31:10.218Z,46.79
2022-08-22T12:36:34.041Z,44.92
2022-08-22T12:42:07.198Z,43.03
2022-08-22T12:47:31.912Z,44.91
2022-08-22T12:52:55.557Z,44.02
2022-08-22T12:58:09.833Z,44.52
2022-08-22T13:03:24.402Z,43.44
2022-08-22T13:08:32.193Z,43.71
2022-08-22T13:13:40.513Z,44.43
2022-08-22T13:18:53.554Z,42.74
2022-08-22T13:24:01.124Z,43.81
2022-08-22T13:29:25.142Z,42.30
2022-08-22T13:34:40.238Z,42.76
2022-08-22T13:39:48.908Z,44.47
2022-08-22T13:44:56.472Z,42.11
2022-08-22T13:50:11.259Z,40.11
2022-08-22T13:55:19.660Z,42.35
2022-08-22T14:01:10.673Z,40.67
2022-08-22T14:06:37.666Z,40.70
2022-08-22T14:11:47.410Z,40.36
2022-08-22T14:16:55.148Z,38.91
2022-08-22T14:22:02.050Z,39.16
2022-08-22T14:27:09.261Z,40.53
2022-08-22T14:32:36.483Z,40.51
2022-08-22T14:37:49.996Z,42.29
2022-08-22T14:42:57.575Z,43.07
2022-08-22T14:48:29.286Z,42.84
2022-08-22T14:53:37.510Z,41.84
2022-08-22T14:58:51.188Z,41.27
2022-08-22T15:04:02.857Z,41.43
2022-08-22T15:09:23.660Z,41.30
2022-08-22T15:14:45.564Z,40.06
2022-08-22T15:20:12.033Z,37.83
2022-08-22T15:25:19.015Z,39.18
2022-08-22T15:30:44.123Z,37.65
2022-08-22T15:35:51.174Z,39.75
2022-08-22T15:40:57.125Z,41.23
2022-08-22T15:46:25.898Z,43.74
2022-08-22T15:51:38.654Z,43.92
2022-08-22T15:56:45.986Z,40.87
2022-08-22T16:01:53.469Z,39.51
2022-08-22T16:07:01.357Z,39.11
2022-08-22T16:12:08.738Z,38.83
2022-08-22T16:17:42.177Z,39.32
2022-08-22T16:23:08.870Z,38.82
2022-08-22T16:28:41.487Z,39.36
2022-08-22T16:33:47.937Z,38.86
2022-08-22T16:38:56.596Z,38.87
2022-08-22T16:44:40.217Z,42.67
2022-08-22T16:50:02.290Z,41.77
2022-08-22T16:55:46.036Z,39.24
2022-08-22T17:00:58.097Z,39.80
2022-08-22T17:06:32.146Z,42.02
2022-08-22T17:11:44.781Z,40.86
2022-08-22T17:17:15.157Z,42.44
2022-08-22T17:22:29.264Z,41.22
2022-08-22T17:27:37.946Z,40.21
2022-08-22T17:33:15.067Z,40.71
2022-08-22T17:38:33.193Z,41.19
2022-08-22T17:43:53.230Z,42.55
2022-08-22T17:49:10.313Z,43.25
2022-08-22T17:54:21.655Z,43.85
2022-08-22T17:59:30.257Z,45.92
2022-08-22T18:04:46.861Z,43.48
2022-08-22T18:09:58.559Z,46.09
2022-08-22T18:15:10.199Z,46.50
2022-08-22T18:20:23.059Z,47.25
2022-08-22T18:25:40.832Z,46.60
2022-08-22T18:30:57.484Z,47.18
2022-08-22T18:36:09.021Z,47.63
2022-08-22T18:41:23.185Z,48.75
2022-08-22T18:46:52.056Z,49.52
2022-08-22T18:52:23.348Z,50.50
2022-08-22T18:57:42.655Z,50.45
2022-08-22T19:03:22.158Z,53.28
2022-08-22T19:08:53.595Z,52.73
2022-08-22T19:14:16.082Z,53.70
2022-08-22T19:19:24.852Z,56.33
2022-08-22T19:25:08.976Z,56.68
2022-08-22T19:30:42.064Z,57.39
2022-08-22T19:36:02.522Z,57.04
2022-08-22T19:41:06.137Z,56.92
2022-08-22T19:46:14.977Z,60.00
2022-08-22T19:51:29.431Z,60.36
2022-08-22T19:56:44.659Z,59.77
2022-08-22T20:01:58.971Z,60.21
2022-08-22T20:07:14.649Z,61.68
2022-08-22T20:12:25.644Z,63.26
2022-08-22T20:17:43.712Z,63.82
2022-08-22T20:22:53.154Z,64.71
2022-08-22T20:28:03.536Z,65.07
2022-08-22T20:33:12.867Z,65.84
2022-08-22T20:38:21.440Z,66.65
2022-08-22T20:43:32.232Z,68.95
2022-08-22T20:48:42.119Z,69.44
2022-08-22T20:53:52.832Z,70.27
2022-08-22T20:59:00.932Z,70.66
2022-08-22T21:04:06.497Z,70.87
2022-08-22T21:09:35.868Z,71.52
2022-08-22T21:14:46.046Z,71.51
2022-08-22T21:19:51.275Z,73.31
2022-08-22T21:24:56.695Z,72.48
2022-08-22T21:30:03.008Z,71.85
2022-08-22T21:35:23.408Z,71.82
2022-08-22T21:40:33.342Z,71.42
2022-08-22T21:45:44.169Z,72.38
2022-08-22T21:50:48.918Z,74.48
2022-08-22T21:56:11.162Z,75.76
2022-08-22T22:01:29.995Z,73.84
2022-08-22T22:06:34.869Z,72.26
2022-08-22T22:11:39.155Z,72.05
2022-08-22T22:16:43.050Z,72.35
2022-08-22T22:21:47.864Z,71.22
2022-08-22T22:26:51.506Z,71.79
2022-08-22T22:31:55.134Z,72.64
2022-08-22T22:37:00.099Z,73.06
2022-08-22T22:42:04.096Z,75.55
2022-08-22T22:47:07.818Z,74.29
2022-08-22T22:52:12.686Z,73.43
2022-08-22T22:57:25.329Z,74.36
2022-08-22T23:02:29.190Z,75.87
2022-08-22T23:07:34.433Z,76.74
2022-08-22T23:12:38.691Z,76.85
2022-08-22T23:17:42.673Z,78.36
2022-08-22T23:22:47.905Z,79.27
2022-08-22T23:27:52.495Z,79.35
2022-08-22T23:33:02.544Z,81.49
2022-08-22T23:38:07.406Z,82.46
2022-08-22T23:43:10.884Z,83.66
2022-08-22T23:48:14.392Z,85.08
2022-08-22T23:53:19.285Z,86.03
2022-08-22T23:58:23.414Z,86.16
